Terminal Aerodrome Forecast
Issued by NWS

Home | Current Version | Previous Version | Text Only | Print | Product List | Glossary On
Versions: 1 2 3 4 5 6 7 8 9 10 11 12 13 14 15 16 17 18 19 20 21
777
FTPA31 PHFO 230540 CCA
TAFHTO
TAF COR
PHTO 230540Z 2306/2406 VRB06KT P6SM -SHRA SCT020 BKN050 OVC100
      TEMPO 2306/2310 3SM SHRA BR BKN025=

USA.gov is the U.S. government's official web portal to all federal, state and local government web resources and services.